MiSS Donna — WDG2382 — position and weather

sailwx.info

Track history (hours):
 
Tides and Currents Weather Stations Pressure Air Temp Water Temp Dewpoint Dewpoint Depression Visibility Wind Speed Wind Dir Waves Ship Positions

MiSS Donna

Owner: OCEAN MARINE BOAT RENTALS,LLC, MORGAN CITY, LA. More information available from US FCC via Universal Licensing System and Coast Guard Vessel Documentation Center.

Last reported at 2017-Jan-20 19:33 UTC. Time now 2017-Jan-20 20:15 UTC.
Position N 39°13' W 076°35'.

Length 21 m; draft 2.7 m.

Type: Towing. MMSI: 367515090.

Date/timePositionNaut miles runAvg speedWind from/ knotsBaromVisibWave heightAir tempDewpointWater temp
2017-Jan-20 19:33N 39°13' W 076°35'0 0.0
2017-Jan-20 18:33N 39°13' W 076°35'0 0.0
2017-Jan-20 17:33N 39°13' W 076°35'0 0.0
2017-Jan-20 16:33N 39°13' W 076°35'0 0.0
2017-Jan-20 15:33N 39°13' W 076°35'0 0.0
2017-Jan-20 14:33N 39°13' W 076°35'2 2.5
2017-Jan-20 13:33N 39°15' W 076°35'2 2.5
2017-Jan-20 12:33N 39°13' W 076°35'0 0.0
2017-Jan-20 11:33N 39°13' W 076°35'0 0.0
2017-Jan-20 10:33N 39°13' W 076°35'0 0.0
2017-Jan-20 09:33N 39°13' W 076°35'0 0.0
2017-Jan-20 08:33N 39°13' W 076°35'0 0.0
2017-Jan-20 07:33N 39°13' W 076°35'0 0.0
2017-Jan-20 06:33N 39°13' W 076°35'0 0.0
2017-Jan-20 05:33N 39°13' W 076°35'0 0.0
2017-Jan-20 04:33N 39°13' W 076°35'0 0.0
2017-Jan-20 03:33N 39°13' W 076°35'0 0.0
2017-Jan-20 02:33N 39°13' W 076°35'5 5.3
2017-Jan-20 01:33N 39°11' W 076°28'6 6.4
2017-Jan-20 00:33N 39°06' W 076°24'7 6.6
2017-Jan-19 23:33N 38°60' W 076°23'7 6.4
2017-Jan-19 22:30N 38°53' W 076°26'20 6.5
2017-Jan-19 19:21N 38°33' W 076°27'17 0.9
2017-Jan-19 01:26N 38°50' W 076°27'6 6.9
2017-Jan-19 00:33N 38°56' W 076°25'9 6.8
2017-Jan-18 23:15N 39°04' W 076°24'6 6.8
2017-Jan-18 22:26N 39°10' W 076°25'6 6.4
2017-Jan-18 21:33N 39°13' W 076°31'3 2.6
2017-Jan-18 20:33N 39°13' W 076°35'0 0.0
2017-Jan-18 19:33N 39°13' W 076°35'0 0.0
2017-Jan-18 18:33N 39°13' W 076°35'0 0.0
2017-Jan-18 17:33N 39°13' W 076°35'0 0.0
2017-Jan-18 16:33N 39°13' W 076°35'0 0.0
2017-Jan-18 15:33N 39°13' W 076°35'0 0.0
2017-Jan-18 14:33N 39°13' W 076°35'0 0.0
2017-Jan-18 01:26N 39°13' W 076°35'0 0.0
2017-Jan-18 00:32N 39°13' W 076°35'0 0.0
2017-Jan-17 23:16N 39°13' W 076°35'0 0.0
2017-Jan-17 22:32N 39°13' W 076°35'0 0.0
2017-Jan-17 18:31N 39°13' W 076°35'0 0.0
2017-Jan-17 17:33N 39°13' W 076°35'0 0.0
2017-Jan-17 15:31N 39°13' W 076°35'0 0.0
2017-Jan-17 14:33N 39°13' W 076°35'0 0.0
2017-Jan-17 13:33N 39°13' W 076°35'0 0.0
2017-Jan-17 12:33N 39°13' W 076°35'0 0.0
2017-Jan-17 11:33N 39°13' W 076°35'0 0.0
2017-Jan-17 10:33N 39°13' W 076°35'0 0.0
2017-Jan-17 09:33N 39°13' W 076°35'0 0.0
2017-Jan-17 08:33N 39°13' W 076°35'0 0.0
2017-Jan-17 07:33N 39°13' W 076°35'0 0.0
2017-Jan-17 06:33N 39°13' W 076°35'0 0.0
2017-Jan-17 05:33N 39°13' W 076°35'0 0.0
2017-Jan-17 04:33N 39°13' W 076°35'0 0.0
2017-Jan-17 03:33N 39°13' W 076°35'0 0.0
2017-Jan-17 02:33N 39°13' W 076°35'0 0.0
2017-Jan-17 01:33N 39°13' W 076°35'0 0.0
2017-Jan-17 00:33N 39°13' W 076°35'0 0.0
2017-Jan-16 23:33N 39°13' W 076°35'0 0.0
2017-Jan-16 22:33N 39°13' W 076°35'0 0.0
2017-Jan-16 21:33N 39°13' W 076°35'0 0.0
2017-Jan-16 20:33N 39°13' W 076°35'0 0.3
2017-Jan-16 19:33N 39°13' W 076°35'2 2.3
2017-Jan-16 18:33N 39°15' W 076°34'1 0.9
2017-Jan-16 17:33N 39°14' W 076°33'2 1.8
2017-Jan-16 16:32N 39°13' W 076°35'0 0.0
2017-Jan-16 15:33N 39°13' W 076°35'0 0.0
2017-Jan-16 14:33N 39°13' W 076°35'0 0.0
2017-Jan-16 13:33N 39°13' W 076°35'0 0.0
2017-Jan-16 12:33N 39°13' W 076°35'0 0.0
2017-Jan-16 11:33N 39°13' W 076°35'0 0.0
2017-Jan-16 10:33N 39°13' W 076°35'0 0.0
2017-Jan-16 09:33N 39°13' W 076°35'0 0.0
2017-Jan-16 08:33N 39°13' W 076°35'0 0.0
2017-Jan-16 07:33N 39°13' W 076°35'0 0.0
2017-Jan-16 06:33N 39°13' W 076°35'0 0.0
2017-Jan-16 05:33N 39°13' W 076°35'0 0.0
2017-Jan-16 04:33N 39°13' W 076°35'0 0.0
2017-Jan-16 03:33N 39°13' W 076°35'0 0.0
2017-Jan-16 02:33N 39°13' W 076°35'0 0.0
2017-Jan-16 01:33N 39°13' W 076°35'0 0.0
2017-Jan-16 00:33N 39°13' W 076°35'0 0.0
2017-Jan-15 23:33N 39°13' W 076°35'0 0.0
2017-Jan-15 22:33N 39°13' W 076°35'0 0.0
2017-Jan-15 21:33N 39°13' W 076°35'0 0.0
2017-Jan-15 20:33N 39°13' W 076°35'0 0.0
2017-Jan-15 19:33N 39°13' W 076°35'0 0.0
2017-Jan-15 18:33N 39°13' W 076°35'0 0.0
2017-Jan-15 17:33N 39°13' W 076°35'0 0.0
2017-Jan-15 16:33N 39°13' W 076°35'0 0.0
2017-Jan-15 15:33N 39°13' W 076°35'0 0.0
2017-Jan-15 14:33N 39°13' W 076°35'0 0.0
2017-Jan-15 13:33N 39°13' W 076°35'0 0.0
2017-Jan-15 11:15N 39°13' W 076°35'0 0.0
2017-Jan-15 10:32N 39°13' W 076°35'0 0.0
2017-Jan-15 09:33N 39°13' W 076°35'0 0.0
2017-Jan-15 08:33N 39°13' W 076°35'0 0.0
2017-Jan-15 07:33N 39°13' W 076°35'0 0.0
2017-Jan-15 06:33N 39°13' W 076°35'0 0.0
2017-Jan-15 05:33N 39°13' W 076°35'0 0.0
2017-Jan-15 04:33N 39°13' W 076°35'0 0.0
2017-Jan-15 03:33N 39°13' W 076°35'0 0.0
2017-Jan-15 02:33N 39°13' W 076°35'0 0.0
2017-Jan-14 22:32N 39°13' W 076°35'0 0.0
2017-Jan-14 21:33N 39°13' W 076°35'0 0.0
2017-Jan-14 20:33N 39°13' W 076°35'0 0.0
2017-Jan-14 19:33N 39°13' W 076°35'0 0.0
2017-Jan-14 18:31N 39°13' W 076°35'0 0.0
2017-Jan-14 17:30N 39°13' W 076°35'0 0.0
2017-Jan-14 16:33N 39°13' W 076°35'0 0.0
2017-Jan-14 15:33N 39°13' W 076°35'0 0.0
2017-Jan-14 14:33N 39°13' W 076°35'0 0.0
2017-Jan-14 13:33N 39°13' W 076°35'3 2.6
2017-Jan-14 12:33N 39°13' W 076°32'7 6.6
2017-Jan-14 11:33N 39°09' W 076°25'6 6.4
2017-Jan-14 10:33N 39°03' W 076°23'5 4.6
2017-Jan-14 09:33N 38°58' W 076°24'6 5.9
2017-Jan-14 08:33N 38°52' W 076°26'10 1.1
2017-Jan-13 23:33N 39°02' W 076°23'8 7.9
2017-Jan-13 22:33N 39°09' W 076°25'8 8.0
2017-Jan-13 21:33N 39°13' W 076°34'1 0.9
2017-Jan-13 20:33N 39°13' W 076°35'0 0.0
2017-Jan-13 19:33N 39°13' W 076°35'0 0.0
2017-Jan-13 18:33N 39°13' W 076°35'0 0.0
2017-Jan-13 17:33N 39°13' W 076°35'0 0.0
2017-Jan-13 16:33N 39°13' W 076°35'0 0.0
2017-Jan-13 15:33N 39°13' W 076°35'0 0.3
2017-Jan-13 14:33N 39°13' W 076°34'3 3.0
2017-Jan-13 13:33N 39°15' W 076°35'0 0.2
2017-Jan-13 12:33N 39°16' W 076°35'0 0.2
2017-Jan-13 11:33N 39°15' W 076°35'3 2.8
2017-Jan-13 10:33N 39°13' W 076°35'0 0.2
2017-Jan-13 09:33N 39°13' W 076°35'0 0.0
2017-Jan-13 08:33N 39°13' W 076°35'0 0.0
2017-Jan-13 07:33N 39°13' W 076°35'0 0.0
2017-Jan-13 06:33N 39°13' W 076°35'0 0.0
2017-Jan-13 05:33N 39°13' W 076°35'0 0.0
2017-Jan-13 04:33N 39°13' W 076°35'0 0.0
2017-Jan-13 03:33N 39°13' W 076°35'0 0.0
2017-Jan-13 02:33N 39°13' W 076°35'0 0.0
2017-Jan-13 01:33N 39°13' W 076°35'0 0.0
2017-Jan-13 00:33N 39°13' W 076°35'0 0.0
2017-Jan-12 23:33N 39°13' W 076°35'0 0.0
2017-Jan-12 22:33N 39°13' W 076°35'0 0.0
2017-Jan-12 21:33N 39°13' W 076°35'0 0.0
2017-Jan-12 20:33N 39°13' W 076°35'0 0.0
2017-Jan-12 19:33N 39°13' W 076°35'0 0.0
2017-Jan-12 18:33N 39°13' W 076°35'0 0.0
2017-Jan-12 17:33N 39°13' W 076°35'0 0.0
2017-Jan-12 16:33N 39°13' W 076°35'0 0.0
2017-Jan-12 15:33N 39°13' W 076°35'0 0.3
2017-Jan-12 14:33N 39°13' W 076°34'0 0.0
2017-Jan-12 13:33N 39°13' W 076°34'0 0.3
2017-Jan-12 12:33N 39°13' W 076°35'0 0.0
2017-Jan-12 11:33N 39°13' W 076°35'0 0.0
2017-Jan-12 10:33N 39°13' W 076°35'0 0.0
2017-Jan-12 09:33N 39°13' W 076°35'0 0.0
2017-Jan-12 08:33N 39°13' W 076°35'0 0.0
2017-Jan-12 07:33N 39°13' W 076°35'0 0.0
2017-Jan-12 06:33N 39°13' W 076°35'0 0.0
2017-Jan-12 05:33N 39°13' W 076°35'0 0.0
2017-Jan-12 04:27N 39°13' W 076°35'0 0.0
2017-Jan-12 03:31N 39°13' W 076°35'0 0.0
2017-Jan-12 01:19N 39°13' W 076°35'0 0.0
2017-Jan-12 00:25N 39°13' W 076°35'0 0.0
2017-Jan-11 23:33N 39°13' W 076°35'0 0.0
2017-Jan-11 22:33N 39°13' W 076°35'0 0.0
2017-Jan-11 21:33N 39°13' W 076°35'0 0.0
2017-Jan-11 20:33N 39°13' W 076°35'0 0.0
2017-Jan-11 19:33N 39°13' W 076°35'0 0.0
2017-Jan-11 18:33N 39°13' W 076°35'0 0.3
2017-Jan-11 17:33N 39°13' W 076°35'0 0.0
2017-Jan-11 16:33N 39°13' W 076°35'0 0.0
2017-Jan-11 15:33N 39°13' W 076°34'3 2.6
2017-Jan-11 14:33N 39°12' W 076°31'3 2.8
2017-Jan-11 13:33N 39°11' W 076°28'4 4.0
2017-Jan-11 12:33N 39°13' W 076°32'2 1.9
2017-Jan-11 11:33N 39°13' W 076°35'0 0.2
2017-Jan-11 10:33N 39°13' W 076°35'0 0.0
2017-Jan-11 09:33N 39°13' W 076°35'0 0.0
2017-Jan-11 08:33N 39°13' W 076°35'0 0.0
2017-Jan-11 07:33N 39°13' W 076°35'0 0.0
2017-Jan-11 06:33N 39°13' W 076°35'0 0.0
2017-Jan-11 05:33N 39°13' W 076°35'0 0.0
2017-Jan-11 04:33N 39°13' W 076°35'0 0.0
2017-Jan-11 03:33N 39°13' W 076°35'0 0.0
2017-Jan-11 02:33N 39°13' W 076°35'0 0.0
2017-Jan-11 01:33N 39°13' W 076°35'0 0.0
2017-Jan-11 00:33N 39°13' W 076°35'0 0.0
2017-Jan-10 23:33N 39°13' W 076°35'0 0.0
2017-Jan-10 22:33N 39°13' W 076°35'0 0.0
2017-Jan-10 21:33N 39°13' W 076°35'0 0.0
2017-Jan-10 20:33N 39°13' W 076°35'0 0.0
2017-Jan-10 19:33N 39°13' W 076°35'  
Track history (hours):
 
Tides and Currents Weather Stations Pressure Air Temp Water Temp Dewpoint Dewpoint Depression Visibility Wind Speed Wind Dir Waves Ship Positions

MiSS Donna

Owner: OCEAN MARINE BOAT RENTALS,LLC, MORGAN CITY, LA. More information available from US FCC via Universal Licensing System and Coast Guard Vessel Documentation Center.

Last reported at 2017-Jan-20 19:33 UTC. Time now 2017-Jan-20 20:15 UTC.
Position N 39°13' W 076°35'.

Length 21 m; draft 2.7 m.

Type: Towing. MMSI: 367515090.

Date/timePositionNaut miles runAvg speedWind from/ knotsBaromVisibWave heightAir tempDewpointWater temp
2017-Jan-20 19:33N 39°13' W 076°35'0 0.0
2017-Jan-20 18:33N 39°13' W 076°35'0 0.0
2017-Jan-20 17:33N 39°13' W 076°35'0 0.0
2017-Jan-20 16:33N 39°13' W 076°35'0 0.0
2017-Jan-20 15:33N 39°13' W 076°35'0 0.0
2017-Jan-20 14:33N 39°13' W 076°35'2 2.5
2017-Jan-20 13:33N 39°15' W 076°35'2 2.5
2017-Jan-20 12:33N 39°13' W 076°35'0 0.0
2017-Jan-20 11:33N 39°13' W 076°35'0 0.0
2017-Jan-20 10:33N 39°13' W 076°35'0 0.0
2017-Jan-20 09:33N 39°13' W 076°35'0 0.0
2017-Jan-20 08:33N 39°13' W 076°35'0 0.0
2017-Jan-20 07:33N 39°13' W 076°35'0 0.0
2017-Jan-20 06:33N 39°13' W 076°35'0 0.0
2017-Jan-20 05:33N 39°13' W 076°35'0 0.0
2017-Jan-20 04:33N 39°13' W 076°35'0 0.0
2017-Jan-20 03:33N 39°13' W 076°35'0 0.0
2017-Jan-20 02:33N 39°13' W 076°35'5 5.3
2017-Jan-20 01:33N 39°11' W 076°28'6 6.4
2017-Jan-20 00:33N 39°06' W 076°24'7 6.6
2017-Jan-19 23:33N 38°60' W 076°23'7 6.4
2017-Jan-19 22:30N 38°53' W 076°26'20 6.5
2017-Jan-19 19:21N 38°33' W 076°27'17 0.9
2017-Jan-19 01:26N 38°50' W 076°27'6 6.9
2017-Jan-19 00:33N 38°56' W 076°25'9 6.8
2017-Jan-18 23:15N 39°04' W 076°24'6 6.8
2017-Jan-18 22:26N 39°10' W 076°25'6 6.4
2017-Jan-18 21:33N 39°13' W 076°31'3 2.6
2017-Jan-18 20:33N 39°13' W 076°35'0 0.0
2017-Jan-18 19:33N 39°13' W 076°35'0 0.0
2017-Jan-18 18:33N 39°13' W 076°35'0 0.0
2017-Jan-18 17:33N 39°13' W 076°35'0 0.0
2017-Jan-18 16:33N 39°13' W 076°35'0 0.0
2017-Jan-18 15:33N 39°13' W 076°35'0 0.0
2017-Jan-18 14:33N 39°13' W 076°35'0 0.0
2017-Jan-18 01:26N 39°13' W 076°35'0 0.0
2017-Jan-18 00:32N 39°13' W 076°35'0 0.0
2017-Jan-17 23:16N 39°13' W 076°35'0 0.0
2017-Jan-17 22:32N 39°13' W 076°35'0 0.0
2017-Jan-17 18:31N 39°13' W 076°35'0 0.0
2017-Jan-17 17:33N 39°13' W 076°35'0 0.0
2017-Jan-17 15:31N 39°13' W 076°35'0 0.0
2017-Jan-17 14:33N 39°13' W 076°35'0 0.0
2017-Jan-17 13:33N 39°13' W 076°35'0 0.0
2017-Jan-17 12:33N 39°13' W 076°35'0 0.0
2017-Jan-17 11:33N 39°13' W 076°35'0 0.0
2017-Jan-17 10:33N 39°13' W 076°35'0 0.0
2017-Jan-17 09:33N 39°13' W 076°35'0 0.0
2017-Jan-17 08:33N 39°13' W 076°35'0 0.0
2017-Jan-17 07:33N 39°13' W 076°35'0 0.0
2017-Jan-17 06:33N 39°13' W 076°35'0 0.0
2017-Jan-17 05:33N 39°13' W 076°35'0 0.0
2017-Jan-17 04:33N 39°13' W 076°35'0 0.0
2017-Jan-17 03:33N 39°13' W 076°35'0 0.0
2017-Jan-17 02:33N 39°13' W 076°35'0 0.0
2017-Jan-17 01:33N 39°13' W 076°35'0 0.0
2017-Jan-17 00:33N 39°13' W 076°35'0 0.0
2017-Jan-16 23:33N 39°13' W 076°35'0 0.0
2017-Jan-16 22:33N 39°13' W 076°35'0 0.0
2017-Jan-16 21:33N 39°13' W 076°35'0 0.0
2017-Jan-16 20:33N 39°13' W 076°35'0 0.3
2017-Jan-16 19:33N 39°13' W 076°35'2 2.3
2017-Jan-16 18:33N 39°15' W 076°34'1 0.9
2017-Jan-16 17:33N 39°14' W 076°33'2 1.8
2017-Jan-16 16:32N 39°13' W 076°35'0 0.0
2017-Jan-16 15:33N 39°13' W 076°35'0 0.0
2017-Jan-16 14:33N 39°13' W 076°35'0 0.0
2017-Jan-16 13:33N 39°13' W 076°35'0 0.0
2017-Jan-16 12:33N 39°13' W 076°35'0 0.0
2017-Jan-16 11:33N 39°13' W 076°35'0 0.0
2017-Jan-16 10:33N 39°13' W 076°35'0 0.0
2017-Jan-16 09:33N 39°13' W 076°35'0 0.0
2017-Jan-16 08:33N 39°13' W 076°35'0 0.0
2017-Jan-16 07:33N 39°13' W 076°35'0 0.0
2017-Jan-16 06:33N 39°13' W 076°35'0 0.0
2017-Jan-16 05:33N 39°13' W 076°35'0 0.0
2017-Jan-16 04:33N 39°13' W 076°35'0 0.0
2017-Jan-16 03:33N 39°13' W 076°35'0 0.0
2017-Jan-16 02:33N 39°13' W 076°35'0 0.0
2017-Jan-16 01:33N 39°13' W 076°35'0 0.0
2017-Jan-16 00:33N 39°13' W 076°35'0 0.0
2017-Jan-15 23:33N 39°13' W 076°35'0 0.0
2017-Jan-15 22:33N 39°13' W 076°35'0 0.0
2017-Jan-15 21:33N 39°13' W 076°35'0 0.0
2017-Jan-15 20:33N 39°13' W 076°35'0 0.0
2017-Jan-15 19:33N 39°13' W 076°35'0 0.0
2017-Jan-15 18:33N 39°13' W 076°35'0 0.0
2017-Jan-15 17:33N 39°13' W 076°35'0 0.0
2017-Jan-15 16:33N 39°13' W 076°35'0 0.0
2017-Jan-15 15:33N 39°13' W 076°35'0 0.0
2017-Jan-15 14:33N 39°13' W 076°35'0 0.0
2017-Jan-15 13:33N 39°13' W 076°35'0 0.0
2017-Jan-15 11:15N 39°13' W 076°35'0 0.0
2017-Jan-15 10:32N 39°13' W 076°35'0 0.0
2017-Jan-15 09:33N 39°13' W 076°35'0 0.0
2017-Jan-15 08:33N 39°13' W 076°35'0 0.0
2017-Jan-15 07:33N 39°13' W 076°35'0 0.0
2017-Jan-15 06:33N 39°13' W 076°35'0 0.0
2017-Jan-15 05:33N 39°13' W 076°35'0 0.0
2017-Jan-15 04:33N 39°13' W 076°35'0 0.0
2017-Jan-15 03:33N 39°13' W 076°35'0 0.0
2017-Jan-15 02:33N 39°13' W 076°35'0 0.0
2017-Jan-14 22:32N 39°13' W 076°35'0 0.0
2017-Jan-14 21:33N 39°13' W 076°35'0 0.0
2017-Jan-14 20:33N 39°13' W 076°35'0 0.0
2017-Jan-14 19:33N 39°13' W 076°35'0 0.0
2017-Jan-14 18:31N 39°13' W 076°35'0 0.0
2017-Jan-14 17:30N 39°13' W 076°35'0 0.0
2017-Jan-14 16:33N 39°13' W 076°35'0 0.0
2017-Jan-14 15:33N 39°13' W 076°35'0 0.0
2017-Jan-14 14:33N 39°13' W 076°35'0 0.0
2017-Jan-14 13:33N 39°13' W 076°35'3 2.6
2017-Jan-14 12:33N 39°13' W 076°32'7 6.6
2017-Jan-14 11:33N 39°09' W 076°25'6 6.4
2017-Jan-14 10:33N 39°03' W 076°23'5 4.6
2017-Jan-14 09:33N 38°58' W 076°24'6 5.9
2017-Jan-14 08:33N 38°52' W 076°26'10 1.1
2017-Jan-13 23:33N 39°02' W 076°23'8 7.9
2017-Jan-13 22:33N 39°09' W 076°25'8 8.0
2017-Jan-13 21:33N 39°13' W 076°34'1 0.9
2017-Jan-13 20:33N 39°13' W 076°35'0 0.0
2017-Jan-13 19:33N 39°13' W 076°35'0 0.0
2017-Jan-13 18:33N 39°13' W 076°35'0 0.0
2017-Jan-13 17:33N 39°13' W 076°35'0 0.0
2017-Jan-13 16:33N 39°13' W 076°35'0 0.0
2017-Jan-13 15:33N 39°13' W 076°35'0 0.3
2017-Jan-13 14:33N 39°13' W 076°34'3 3.0
2017-Jan-13 13:33N 39°15' W 076°35'0 0.2
2017-Jan-13 12:33N 39°16' W 076°35'0 0.2
2017-Jan-13 11:33N 39°15' W 076°35'3 2.8
2017-Jan-13 10:33N 39°13' W 076°35'0 0.2
2017-Jan-13 09:33N 39°13' W 076°35'0 0.0
2017-Jan-13 08:33N 39°13' W 076°35'0 0.0
2017-Jan-13 07:33N 39°13' W 076°35'0 0.0
2017-Jan-13 06:33N 39°13' W 076°35'0 0.0
2017-Jan-13 05:33N 39°13' W 076°35'0 0.0
2017-Jan-13 04:33N 39°13' W 076°35'0 0.0
2017-Jan-13 03:33N 39°13' W 076°35'0 0.0
2017-Jan-13 02:33N 39°13' W 076°35'0 0.0
2017-Jan-13 01:33N 39°13' W 076°35'0 0.0
2017-Jan-13 00:33N 39°13' W 076°35'0 0.0
2017-Jan-12 23:33N 39°13' W 076°35'0 0.0
2017-Jan-12 22:33N 39°13' W 076°35'0 0.0
2017-Jan-12 21:33N 39°13' W 076°35'0 0.0
2017-Jan-12 20:33N 39°13' W 076°35'0 0.0
2017-Jan-12 19:33N 39°13' W 076°35'0 0.0
2017-Jan-12 18:33N 39°13' W 076°35'0 0.0
2017-Jan-12 17:33N 39°13' W 076°35'0 0.0
2017-Jan-12 16:33N 39°13' W 076°35'0 0.0
2017-Jan-12 15:33N 39°13' W 076°35'0 0.3
2017-Jan-12 14:33N 39°13' W 076°34'0 0.0
2017-Jan-12 13:33N 39°13' W 076°34'0 0.3
2017-Jan-12 12:33N 39°13' W 076°35'0 0.0
2017-Jan-12 11:33N 39°13' W 076°35'0 0.0
2017-Jan-12 10:33N 39°13' W 076°35'0 0.0
2017-Jan-12 09:33N 39°13' W 076°35'0 0.0
2017-Jan-12 08:33N 39°13' W 076°35'0 0.0
2017-Jan-12 07:33N 39°13' W 076°35'0 0.0
2017-Jan-12 06:33N 39°13' W 076°35'0 0.0
2017-Jan-12 05:33N 39°13' W 076°35'0 0.0
2017-Jan-12 04:27N 39°13' W 076°35'0 0.0
2017-Jan-12 03:31N 39°13' W 076°35'0 0.0
2017-Jan-12 01:19N 39°13' W 076°35'0 0.0
2017-Jan-12 00:25N 39°13' W 076°35'0 0.0
2017-Jan-11 23:33N 39°13' W 076°35'0 0.0
2017-Jan-11 22:33N 39°13' W 076°35'0 0.0
2017-Jan-11 21:33N 39°13' W 076°35'0 0.0
2017-Jan-11 20:33N 39°13' W 076°35'0 0.0
2017-Jan-11 19:33N 39°13' W 076°35'0 0.0
2017-Jan-11 18:33N 39°13' W 076°35'0 0.3
2017-Jan-11 17:33N 39°13' W 076°35'0 0.0
2017-Jan-11 16:33N 39°13' W 076°35'0 0.0
2017-Jan-11 15:33N 39°13' W 076°34'3 2.6
2017-Jan-11 14:33N 39°12' W 076°31'3 2.8
2017-Jan-11 13:33N 39°11' W 076°28'4 4.0
2017-Jan-11 12:33N 39°13' W 076°32'2 1.9
2017-Jan-11 11:33N 39°13' W 076°35'0 0.2
2017-Jan-11 10:33N 39°13' W 076°35'0 0.0
2017-Jan-11 09:33N 39°13' W 076°35'0 0.0
2017-Jan-11 08:33N 39°13' W 076°35'0 0.0
2017-Jan-11 07:33N 39°13' W 076°35'0 0.0
2017-Jan-11 06:33N 39°13' W 076°35'0 0.0
2017-Jan-11 05:33N 39°13' W 076°35'0 0.0
2017-Jan-11 04:33N 39°13' W 076°35'0 0.0
2017-Jan-11 03:33N 39°13' W 076°35'0 0.0
2017-Jan-11 02:33N 39°13' W 076°35'0 0.0
2017-Jan-11 01:33N 39°13' W 076°35'0 0.0
2017-Jan-11 00:33N 39°13' W 076°35'0 0.0
2017-Jan-10 23:33N 39°13' W 076°35'0 0.0
2017-Jan-10 22:33N 39°13' W 076°35'0 0.0
2017-Jan-10 21:33N 39°13' W 076°35'0 0.0
2017-Jan-10 20:33N 39°13' W 076°35'0 0.0
2017-Jan-10 19:33N 39°13' W 076°35'  

Dump ship's entire track history